Latest Coastal Weather Observations for Horn Island

IDQ60701

Issued at 10:21 am EST Monday 23 January 2017 (issued every 10 minutes, with the page automatically refreshed every 10 minutes)

About coastal observations | Map of coastal stations | Coastal observations for QLD | Marine services | Other Formats
Station Details ID: 027058 Name: HORN ISLAND Lat: -10.58 Lon: 142.29 Height: 4.0 m
Data from the previous 72 hours. | See also: Recent months at Horn Island
Date/Time
EST
Temp
°C
Wind Pressure Rain since
9am
mm
Weather Cloud Vis
km
Sea
Height
m
Swell
Dir  Spd
kts
Gust
kts
hPa Trend Height
m
Period
s
Dir
23/10:12am 24.4 W 10 17 1012.5 - 12.8 - Partly cloudy 1 - - - -
23/10:00am 24.6 S 5 6 1011.9 - 2.2 - Partly cloudy 4 - - - -
23/09:53am 24.5 S 5 6 1012.0 - 1.4 - Partly cloudy 5 - - - -
23/09:30am 24.5 SSW 6 7 1011.6 - 0.2 - Partly cloudy 10 - - - -
23/09:00am 24.3 SW 8 13 1011.8 - 24.4 - Cloudy 10 - - - -
23/08:52am 24.3 SW 10 13 1011.5 - 24.4 - Partly cloudy 10 - - - -
23/08:36am 24.8 WSW 11 15 1011.5 - 24.4 - Partly cloudy 10 - - - -
23/08:30am 24.7 SSW 5 7 1011.4 - 24.4 - Partly cloudy 7 - - - -
23/08:22am 24.6 S 5 7 1011.2 - 24.4 - Partly cloudy 5 - - - -
23/08:00am 24.4 NW 4 6 1011.1 - 22.4 - Partly cloudy 4 - - - -
23/07:30am 25.4 SE 7 9 1010.2 - 12.8 - Partly cloudy 6 - - - -
23/07:07am 25.5 WSW 10 13 1009.7 - 10.4 - Partly cloudy 5 - - - -
23/07:00am 25.8 SW 2 13 1009.6 - 8.4 - Partly cloudy 10 - - - -
23/06:30am 25.6 CALM 0 0 1009.0 - 8.4 - - 10 - - - -
23/06:00am 25.6 SW 3 4 1008.4 - 8.4 - - 10 - - - -
23/05:30am 25.5 W 4 5 1008.0 - 8.4 - - 10 - - - -
23/05:01am 25.6 SSE 1 3 1007.8 - 8.4 - Partly cloudy 10 - - - -
23/05:00am 25.6 SSE 1 3 1007.8 - 8.4 - Partly cloudy 10 - - - -
23/04:42am 25.7 CALM 0 0 1008.0 - 8.4 - - 5 - - - -
23/04:30am 25.7 CALM 0 0 1008.0 - 8.4 - - 10 - - - -
23/04:00am 25.8 CALM 0 0 1007.8 - 8.4 - - 10 - - - -
23/03:30am 25.9 CALM 0 0 1007.9 - 8.4 - Partly cloudy 10 - - - -
23/03:00am 25.8 CALM 0 0 1007.9 - 8.4 - Mostly clear 10 - - - -
23/02:30am 25.9 CALM 0 0 1008.2 - 8.4 - Partly cloudy 10 - - - -
23/02:00am 25.7 CALM 0 0 1008.5 - 8.4 - - 10 - - - -
23/01:30am 25.6 CALM 0 0 1008.9 - 8.4 - - 10 - - - -
23/01:00am 25.7 CALM 0 0 1009.3 - 8.4 - - 10 - - - -
23/12:30am 25.6 SSE 1 3 1009.5 - 8.4 - - 10 - - - -
23/12:00am 25.6 SSE 2 4 1009.7 - 8.4 - - 10 - - - -
 
Date/Time
EST
Temp
°C
Wind Pressure Rain since
9am
mm
Weather Cloud Vis
km
Sea
Height
m
Swell
Dir  Spd
kts
Gust
kts
hPa Trend Height
m
Period
s
Dir
22/11:30pm 25.6 CALM 0 0 1009.8 - 8.4 - - 10 - - - -
22/11:00pm 25.7 CALM 0 0 1009.8 - 8.4 - - 10 - - - -
22/10:30pm 26.0 CALM 0 0 1009.9 - 8.4 - - 10 - - - -
22/10:00pm 26.2 CALM 0 0 1009.8 - 8.4 - - 10 - - - -
22/09:30pm 26.4 CALM 0 2 1009.7 - 8.4 - - 10 - - - -
22/09:00pm 26.5 SW 3 4 1009.3 - 8.4 - - 10 - - - -
22/08:30pm 26.7 WSW 3 5 1009.2 - 8.4 - - 10 - - - -
22/08:00pm 26.7 SW 4 4 1008.9 - 8.4 - - 10 - - - -
22/07:30pm 27.0 SW 3 5 1008.8 - 8.4 - - 10 - - - -
22/07:00pm 27.3 W 6 8 1008.5 - 8.4 - - 10 - - - -
22/06:30pm 27.6 W 7 9 1008.4 - 8.4 - Partly cloudy 10 - - - -
22/06:00pm 27.7 W 7 12 1008.4 - 8.4 - Mostly clear 10 - - - -
22/05:30pm 27.8 W 9 13 1008.1 - 8.4 - Partly cloudy 10 - - - -
22/05:00pm 27.9 W 10 13 1007.9 - 8.4 - Partly cloudy 10 - - - -
22/04:30pm 28.3 WNW 9 15 1008.0 - 8.4 - Partly cloudy 10 - - - -
22/04:00pm 27.8 WNW 11 16 1008.2 - 8.4 - Partly cloudy 10 - - - -
22/03:30pm 27.3 W 8 13 1008.4 - 8.4 - - 10 - - - -
22/03:00pm 27.0 W 8 13 1008.8 - 8.4 - - 10 - - - -
22/02:30pm 26.3 W 8 14 1009.4 - 8.4 - Partly cloudy 10 - - - -
22/02:00pm 25.4 WSW 7 9 1009.9 - 8.4 - Cloudy 10 - - - -
22/01:30pm 24.3 WSW 9 15 1010.2 - 8.2 - Partly cloudy 10 - - - -
22/01:13pm 24.0 W 13 20 1010.4 - 8.2 - Partly cloudy 7 - - - -
22/01:11pm 24.2 W 13 20 1010.5 - 8.2 - Partly cloudy 6 - - - -
22/01:00pm 24.0 W 15 23 1010.7 - 8.2 - Partly cloudy 6 - - - -
22/12:55pm 24.3 W 15 24 1010.8 - 8.2 - Partly cloudy 4 - - - -
22/12:44pm 25.1 W 16 28 1010.8 - 7.2 - Partly cloudy 4 - - - -
22/12:43pm 25.4 W 15 24 1010.8 - 7.0 - Partly cloudy 5 - - - -
22/12:37pm 26.5 W 16 26 1010.7 - 6.2 - Partly cloudy 10 - - - -
22/12:30pm 29.2 NW 12 21 1010.4 - 6.2 - Partly cloudy 10 - - - -
22/12:00pm 29.4 NW 12 16 1010.7 - 6.2 - Mostly clear 10 - - - -
22/11:30am 28.9 NW 12 16 1011.1 - 6.2 - Partly cloudy 10 - - - -
22/11:00am 28.2 NW 9 14 1011.1 - 6.2 - Partly cloudy 10 - - - -
22/10:47am 26.9 NW 9 12 1011.2 - 6.2 - Partly cloudy 10 - - - -
22/10:30am 26.7 WNW 10 15 1011.3 - 6.2 - Partly cloudy 10 - - - -
22/10:22am 26.6 WNW 10 15 1011.4 - 6.2 - Partly cloudy 10 - - - -
22/10:13am 26.6 WNW 6 11 1011.5 - 6.2 - Partly cloudy 6 - - - -
22/10:01am 26.3 NNW 11 18 1011.6 - 4.6 - Partly cloudy 4 - - - -
22/10:00am 26.3 NNW 12 18 1011.5 - 3.4 - Partly cloudy 6 - - - -
22/09:45am 26.4 NW 11 18 1011.5 - 3.0 - Partly cloudy 10 - - - -
22/09:30am 26.3 NW 12 18 1011.4 - 3.0 - Partly cloudy 2 - - - -
22/09:24am 26.0 NW 11 18 1011.4 - 1.8 - Partly cloudy 3 - - - -
22/09:22am 26.6 NW 11 18 1011.5 - 1.0 - Partly cloudy 4 - - - -
22/09:00am 27.2 NNW 11 16 1011.3 - 69.6 - Cloudy 10 - - - -
22/08:53am 27.1 NNW 11 16 1011.3 - 69.6 - Partly cloudy 10 - - - -
22/08:30am 26.1 NW 9 14 1011.2 - 69.4 - Cloudy 10 - - - -
22/08:00am 26.1 NW 9 13 1010.9 - 69.4 - Partly cloudy 10 - - - -
22/07:30am 26.0 NNW 8 12 1010.6 - 69.4 - - 10 - - - -
22/07:00am 25.8 NNW 10 15 1010.6 - 69.4 - Partly cloudy 10 - - - -
22/06:30am 25.7 NNW 11 15 1010.3 - 69.4 - Partly cloudy 8 - - - -
22/06:03am 25.5 NW 7 11 1010.1 - 67.8 - Partly cloudy 8 - - - -
22/06:00am 25.3 NW 7 10 1010.1 - 67.6 - Partly cloudy 8 - - - -
22/05:30am 24.9 SW 1 3 1009.8 - 65.6 - Partly cloudy 4 - - - -
22/05:03am 24.5 SSW 4 7 1009.7 - 64.0 - Partly cloudy 5 - - - -
22/05:00am 24.4 SSW 5 8 1009.7 - 63.8 - Partly cloudy 9 - - - -
22/04:46am 25.1 WNW 4 6 1009.6 - 63.8 - Partly cloudy 10 - - - -
22/04:30am 25.0 NW 8 10 1009.5 - 63.4 - Partly cloudy 3 - - - -
22/04:19am 24.7 WNW 7 13 1009.7 - 60.6 - Partly cloudy 5 - - - -
22/04:00am 26.5 NNW 10 13 1009.4 - 59.0 - Partly cloudy 10 - - - -
22/03:30am 26.4 NNW 7 10 1009.3 - 58.2 - Partly cloudy 8 - - - -
22/03:00am 27.4 NW 8 13 1009.6 - 57.2 - Cloudy 10 - - - -
22/02:30am 28.1 NNW 9 13 1009.7 - 57.0 - Partly cloudy 10 - - - -
22/02:00am 28.1 NNW 9 12 1009.6 - 57.0 - Partly cloudy 10 - - - -
22/01:30am 28.0 NNW 8 12 1009.9 - 57.0 - Partly cloudy 10 - - - -
22/01:00am 27.9 NNW 7 9 1010.1 - 57.0 - Partly cloudy 10 - - - -
22/12:30am 27.2 NNW 5 8 1010.5 - 57.0 - Partly cloudy 10 - - - -
22/12:00am 26.6 NW 3 5 1010.7 - 57.0 - Mostly clear 10 - - - -
 
Date/Time
EST
Temp
°C
Wind Pressure Rain since
9am
mm
Weather Cloud Vis
km
Sea
Height
m
Swell
Dir  Spd
kts
Gust
kts
hPa Trend Height
m
Period
s
Dir
21/11:30pm 26.5 CALM 0 3 1010.6 - 57.0 - - 10 - - - -
21/11:00pm 26.2 W 4 5 1010.3 - 57.0 - - 10 - - - -
21/10:30pm 26.2 SE 3 4 1009.9 - 57.0 - Partly cloudy 10 - - - -
21/10:00pm 26.1 CALM 0 0 1009.3 - 57.0 - - 10 - - - -
21/09:30pm 26.3 CALM 0 0 1009.0 - 56.8 - - 10 - - - -
21/09:00pm 26.3 SE 2 5 1008.8 - 56.8 - - 10 - - - -
21/08:30pm 26.5 SSW 1 4 1008.8 - 56.8 - - 10 - - - -
21/08:00pm 26.6 CALM 0 0 1008.9 - 56.8 - - 10 - - - -
21/07:30pm 27.0 SW 1 3 1009.0 - 56.8 - - 10 - - - -
21/07:00pm 27.2 W 4 4 1009.0 - 56.8 - - 10 - - - -
21/06:30pm 27.6 W 3 5 1008.9 - 56.8 - Partly cloudy 10 - - - -
21/06:00pm 27.8 WSW 4 6 1008.6 - 56.8 - - 10 - - - -
21/05:30pm 27.9 WSW 5 8 1008.4 - 56.8 - Partly cloudy 10 - - - -
21/05:00pm 27.9 W 6 9 1008.1 - 56.8 - Partly cloudy 10 - - - -
21/04:30pm 27.9 W 5 7 1007.9 - 56.8 - Partly cloudy 10 - - - -
21/04:00pm 27.8 W 6 8 1007.9 - 56.8 - Partly cloudy 10 - - - -
21/03:30pm 27.8 W 5 8 1008.2 - 56.8 - Partly cloudy 10 - - - -
21/03:00pm 27.5 WNW 6 9 1008.6 - 56.8 - Mostly cloudy 10 - - - -
21/02:57pm 27.4 WNW 6 9 1008.6 - 56.8 - Partly cloudy 10 - - - -
21/02:33pm 27.4 WNW 6 10 1008.9 - 56.8 - Partly cloudy 10 - - - -
21/02:30pm 27.5 WNW 6 10 1009.0 - 56.8 - Partly cloudy 10 - - - -
21/02:00pm 27.4 W 6 10 1009.5 - 56.8 - - 10 - - - -
21/01:30pm 26.6 W 7 9 1009.9 - 56.8 - Partly cloudy 10 - - - -
21/01:00pm 26.3 WSW 8 12 1010.1 - 56.6 - Partly cloudy 9 - - - -
21/12:30pm 25.6 W 4 8 1010.9 - 56.0 - Partly cloudy 9 - - - -
21/12:24pm 25.6 W 3 4 1011.0 - 55.8 - Partly cloudy 7 - - - -
21/12:00pm 24.9 W 4 5 1011.0 - 54.0 - Cloudy 5 - - - -
21/11:57am 25.0 W 4 6 1010.9 - 53.8 - Partly cloudy 5 - - - -
21/11:30am 24.8 SW 8 9 1010.8 - 52.2 - Partly cloudy 8 - - - -
21/11:29am 24.9 SW 8 9 1010.9 - 52.2 - Partly cloudy 7 - - - -
21/11:00am 25.6 SW 8 14 1011.3 - 49.8 - Partly cloudy 4 - - - -
21/10:54am 26.1 SW 5 6 1011.5 - 49.0 - Partly cloudy 5 - - - -
21/10:41am 25.5 CALM 0 0 1011.5 - 48.0 - Partly cloudy 7 - - - -
21/10:31am 25.5 CALM 0 3 1011.5 - 47.6 - Partly cloudy 5 - - - -
21/10:30am 25.5 SSW 1 3 1011.4 - 47.6 - Partly cloudy 6 - - - -
21/10:28am 25.4 SSW 1 4 1011.5 - 47.6 - Partly cloudy 6 - - - -
21/10:02am 24.9 SW 4 6 1011.7 - 45.8 - Partly cloudy 2 - - - -
21/10:00am 24.8 S 4 6 1011.7 - 45.4 - Partly cloudy 2 - - - -
21/09:30am 24.8 W 10 16 1012.5 - 22.6 - Partly cloudy 0.9 - - - -
21/09:24am 24.8 W 13 22 1012.4 - 14.2 - Partly cloudy 1 - - - -
21/09:14am 26.5 WNW 15 25 1011.8 - 1.8 - Partly cloudy 5 - - - -
21/09:06am 28.8 WNW 15 19 1011.5 - 0.0 - Partly cloudy 10 - - - -
21/09:00am 30.0 WSW 7 9 1011.3 - 0.2 - Mostly clear 10 - - - -
21/08:30am 30.0 WSW 7 10 1010.9 - 0.2 - Partly cloudy 10 - - - -
21/08:00am 29.0 WSW 5 7 1010.7 - 0.2 - - 10 - - - -
21/07:30am 27.7 SSW 5 6 1010.3 - 0.2 - Partly cloudy 10 - - - -
21/07:00am 27.1 S 1 4 1010.1 - 0.2 - Partly cloudy 10 - - - -
21/06:30am 26.8 S 3 4 1009.5 - 0.2 - - 10 - - - -
21/06:00am 26.9 SSW 4 4 1008.9 - 0.2 - Mostly clear 10 - - - -
21/05:30am 27.3 W 5 6 1008.6 - 0.2 - Partly cloudy 10 - - - -
21/05:00am 27.3 W 6 9 1008.3 - 0.2 - - 10 - - - -
21/04:30am 27.5 W 8 13 1008.2 - 0.2 - Partly cloudy 10 - - - -
21/04:00am 27.8 W 6 8 1008.2 - 0.2 - - 10 - - - -
21/03:30am 27.6 W 6 8 1008.5 - 0.2 - - 10 - - - -
21/03:00am 27.4 W 4 5 1008.4 - 0.2 - - 10 - - - -
21/02:30am 27.4 WNW 5 7 1008.5 - 0.2 - - 10 - - - -
21/02:00am 27.2 WNW 5 7 1008.7 - 0.2 - - 10 - - - -
21/01:30am 26.9 W 5 7 1009.0 - 0.2 - Partly cloudy 10 - - - -
21/01:00am 26.5 W 4 5 1009.3 - 0.2 - - 10 - - - -
21/12:30am 26.6 W 2 3 1009.3 - 0.2 - - 10 - - - -
21/12:00am 26.6 W 3 4 1009.5 - 0.2 - - 10 - - - -
 
Date/Time
EST
Temp
°C
Wind Pressure Rain since
9am
mm
Weather Cloud Vis
km
Sea
Height
m
Swell
Dir  Spd
kts
Gust
kts
hPa Trend Height
m
Period
s
Dir
20/11:30pm 26.6 CALM 0 0 1009.7 - 0.2 - - 10 - - - -
20/11:00pm 26.8 CALM 0 0 1009.9 - 0.2 - - 10 - - - -
20/10:30pm 27.0 CALM 0 0 1009.9 - 0.2 - - 10 - - - -
20/10:00pm 27.0 S 3 3 1009.9 - 0.2 - - 10 - - - -
20/09:30pm 27.2 SSW 3 3 1009.9 - 0.2 - - 10 - - - -
20/09:00pm 27.3 SSW 3 4 1009.7 - 0.2 - Mostly clear 10 - - - -
20/08:30pm 27.3 SW 3 4 1009.4 - 0.2 - - 10 - - - -
20/08:00pm 27.5 WSW 4 4 1009.0 - 0.2 - - 10 - - - -
20/07:30pm 27.8 WSW 3 5 1008.6 - 0.2 - - 10 - - - -
20/07:00pm 28.1 W 3 5 1008.2 - 0.2 - - 10 - - - -
20/06:30pm 28.5 W 4 7 1007.9 - 0.2 - - 10 - - - -
20/06:00pm 28.5 WNW 6 9 1007.5 - 0.2 - - 10 - - - -
20/05:30pm 29.3 WNW 6 10 1007.3 - 0.2 - - 10 - - - -
20/05:00pm 28.9 W 7 11 1007.2 - 0.2 - - 10 - - - -
20/04:30pm 29.0 WNW 7 10 1007.4 - 0.2 - - 10 - - - -
20/04:00pm 29.0 W 10 13 1007.6 - 0.2 - Partly cloudy 10 - - - -
20/03:30pm 29.5 NW 10 13 1007.6 - 0.2 - - 10 - - - -
20/03:00pm 30.3 NNW 10 14 1007.7 - 0.2 - Mostly cloudy 10 - - - -
20/02:30pm 30.2 NW 9 12 1007.8 - 0.2 - Partly cloudy 10 - - - -
20/02:00pm 30.0 NW 8 11 1008.1 - 0.2 - Partly cloudy 10 - - - -
20/01:30pm 29.9 NW 8 11 1008.4 - 0.2 - - 10 - - - -
20/01:00pm 30.5 NW 9 14 1008.8 - 0.2 - Partly cloudy 10 - - - -
20/12:30pm 30.5 NW 10 15 1009.2 - 0.2 - - 10 - - - -
20/12:00pm 30.5 NW 10 15 1009.3 - 0.2 - - 10 - - - -
20/11:30am 29.9 NNW 10 14 1009.6 - 0.2 - Partly cloudy 10 - - - -
20/11:00am 29.8 NNW 10 14 1010.0 - 0.2 - Partly cloudy 10 - - - -
20/10:30am 29.6 NNW 11 14 1010.1 - 0.2 - Partly cloudy 10 - - - -

Other Formats:

Comma delimited format used in spreadsheet applications
http://www.bom.gov.au/fwo/IDQ60701/IDQ60701.94174.axf

JavaScript Object Notation format (JSON) in row-major order
http://www.bom.gov.au/fwo/IDQ60701/IDQ60701.94174.json